createdAt,value
2023-02-26T00:00:15.163Z,6.14
2023-02-26T00:02:49.156Z,6.16
2023-02-26T00:05:22.324Z,6.19
2023-02-26T00:07:55.316Z,6.20
2023-02-26T00:10:28.361Z,6.19
2023-02-26T00:13:01.522Z,6.20
2023-02-26T00:15:34.888Z,6.20
2023-02-26T00:18:11.035Z,6.23
2023-02-26T00:20:45.148Z,6.24
2023-02-26T00:23:18.874Z,6.25
2023-02-26T00:25:52.276Z,6.26
2023-02-26T00:28:26.156Z,6.27
2023-02-26T00:30:59.406Z,6.30
2023-02-26T00:33:33.055Z,6.33
2023-02-26T00:36:25.827Z,6.37
2023-02-26T00:39:22.083Z,6.42
2023-02-26T00:41:56.068Z,6.46
2023-02-26T00:44:29.336Z,6.47
2023-02-26T00:47:27.432Z,6.49
2023-02-26T00:50:27.204Z,6.51
2023-02-26T00:53:29.196Z,6.52
2023-02-26T00:56:01.996Z,6.55
2023-02-26T00:58:35.265Z,6.56
2023-02-26T01:01:08.321Z,6.57
2023-02-26T01:03:42.160Z,6.59
2023-02-26T01:06:18.502Z,6.63
2023-02-26T01:09:34.862Z,6.62
2023-02-26T01:12:13.234Z,6.64
2023-02-26T01:14:48.731Z,6.64
2023-02-26T01:17:34.372Z,6.65
2023-02-26T01:20:19.543Z,6.65
2023-02-26T01:22:56.946Z,6.63
2023-02-26T01:25:58.592Z,6.63
2023-02-26T01:28:33.116Z,6.62
2023-02-26T01:31:08.113Z,6.60
2023-02-26T01:33:47.319Z,6.61
2023-02-26T01:36:26.668Z,6.61
2023-02-26T01:39:23.002Z,6.63
2023-02-26T01:42:09.140Z,6.62
2023-02-26T01:44:58.198Z,6.62
2023-02-26T01:47:44.240Z,6.63
2023-02-26T01:50:25.470Z,6.62
2023-02-26T01:53:20.967Z,6.60
2023-02-26T01:56:03.765Z,6.60
2023-02-26T01:58:38.995Z,6.60
2023-02-26T02:01:13.085Z,6.59
2023-02-26T02:03:46.596Z,6.59
2023-02-26T02:06:23.999Z,6.58
2023-02-26T02:08:57.094Z,6.57
2023-02-26T02:11:30.550Z,6.56
2023-02-26T02:14:20.117Z,6.52
2023-02-26T02:17:17.458Z,6.48
2023-02-26T02:20:10.404Z,6.45
2023-02-26T02:23:17.090Z,6.43
2023-02-26T02:26:39.844Z,6.40
2023-02-26T02:29:35.955Z,6.30
2023-02-26T02:32:39.491Z,6.24
2023-02-26T02:35:25.481Z,6.20
2023-02-26T02:38:21.223Z,6.14
2023-02-26T02:40:59.317Z,6.11
2023-02-26T02:43:35.166Z,6.05
2023-02-26T02:46:12.558Z,6.04
2023-02-26T02:49:11.639Z,6.00
2023-02-26T02:51:55.041Z,5.96
2023-02-26T02:54:35.482Z,5.91
2023-02-26T02:57:16.274Z,5.86
2023-02-26T02:59:55.064Z,5.83
2023-02-26T03:02:42.067Z,5.78
2023-02-26T03:05:15.584Z,5.73
2023-02-26T03:07:53.189Z,5.70
2023-02-26T03:10:26.020Z,5.67
2023-02-26T03:12:59.389Z,5.65
2023-02-26T03:15:52.613Z,5.61
2023-02-26T03:18:48.588Z,5.58
2023-02-26T03:21:27.522Z,5.55
2023-02-26T03:24:19.890Z,5.54
2023-02-26T03:27:06.315Z,5.52
2023-02-26T03:29:49.181Z,5.51
2023-02-26T03:32:32.514Z,5.49
2023-02-26T03:35:12.708Z,5.48
2023-02-26T03:37:50.312Z,5.49
2023-02-26T03:40:43.172Z,5.50
2023-02-26T03:43:27.490Z,5.52
2023-02-26T03:46:06.272Z,5.53
2023-02-26T03:48:39.351Z,5.53
2023-02-26T03:51:14.841Z,5.53
2023-02-26T03:54:00.126Z,5.52
2023-02-26T03:56:46.455Z,5.52
2023-02-26T03:59:31.479Z,5.54
2023-02-26T04:02:34.624Z,5.55
2023-02-26T04:05:16.423Z,5.57
2023-02-26T04:07:50.222Z,5.59
2023-02-26T04:10:30.731Z,5.60
2023-02-26T04:13:04.731Z,5.60
2023-02-26T04:15:37.261Z,5.57
2023-02-26T04:18:09.879Z,5.55
2023-02-26T04:20:44.451Z,5.52
2023-02-26T04:23:17.189Z,5.52
2023-02-26T04:25:51.280Z,5.52
2023-02-26T04:28:24.294Z,5.52
2023-02-26T04:30:58.095Z,5.53
2023-02-26T04:33:31.947Z,5.52
2023-02-26T04:36:05.519Z,5.54
2023-02-26T04:38:39.985Z,5.55
2023-02-26T04:41:12.815Z,5.56
2023-02-26T04:43:46.742Z,5.60
2023-02-26T04:46:21.606Z,5.63
2023-02-26T04:48:54.598Z,5.66
2023-02-26T04:51:28.034Z,5.69
2023-02-26T04:54:01.101Z,5.73
2023-02-26T04:56:34.293Z,5.77
2023-02-26T04:59:07.433Z,5.78
2023-02-26T05:01:40.222Z,5.80
2023-02-26T05:04:13.464Z,5.81
2023-02-26T05:06:47.235Z,5.84
2023-02-26T05:09:21.544Z,5.86
2023-02-26T05:11:55.361Z,5.88
2023-02-26T05:14:28.552Z,5.90
2023-02-26T05:17:03.521Z,5.92
2023-02-26T05:19:36.914Z,5.92
2023-02-26T05:22:10.112Z,5.95
2023-02-26T05:24:44.104Z,5.96
2023-02-26T05:27:17.402Z,6.00
2023-02-26T05:29:51.447Z,6.03
2023-02-26T05:32:24.432Z,6.07
2023-02-26T05:34:57.314Z,6.09
2023-02-26T05:37:30.345Z,6.12
2023-02-26T05:40:03.976Z,6.15
2023-02-26T05:42:37.214Z,6.18
2023-02-26T05:45:11.138Z,6.20
2023-02-26T05:47:43.915Z,6.21
2023-02-26T05:50:16.690Z,6.22
2023-02-26T05:52:50.345Z,6.23
2023-02-26T05:55:23.800Z,6.25
2023-02-26T05:57:56.886Z,6.28
2023-02-26T06:00:31.198Z,6.29
2023-02-26T06:03:04.120Z,6.30
2023-02-26T06:05:37.387Z,6.31
2023-02-26T06:08:12.405Z,6.32
2023-02-26T06:10:45.593Z,6.34
2023-02-26T06:13:18.581Z,6.34
2023-02-26T06:15:54.003Z,6.37
2023-02-26T06:18:27.133Z,6.38
2023-02-26T06:21:00.903Z,6.40
2023-02-26T06:23:34.250Z,6.40
2023-02-26T06:26:08.102Z,6.41
2023-02-26T06:28:41.858Z,6.42
2023-02-26T06:31:14.740Z,6.43
2023-02-26T06:33:47.493Z,6.44
2023-02-26T06:36:20.327Z,6.45
2023-02-26T06:38:53.418Z,6.47
2023-02-26T06:41:26.762Z,6.49
2023-02-26T06:43:59.659Z,6.51
2023-02-26T06:46:33.341Z,6.51
2023-02-26T06:49:07.524Z,6.50
2023-02-26T06:51:41.039Z,6.50
2023-02-26T06:54:14.567Z,6.50
2023-02-26T06:56:48.259Z,6.50
2023-02-26T06:59:22.265Z,6.50
2023-02-26T07:01:55.290Z,6.49
2023-02-26T07:04:28.337Z,6.49
2023-02-26T07:07:01.308Z,6.49
2023-02-26T07:09:34.576Z,6.49
2023-02-26T07:12:08.269Z,6.50
2023-02-26T07:14:43.162Z,6.51
2023-02-26T07:17:17.700Z,6.50
2023-02-26T07:19:52.617Z,6.51
2023-02-26T07:22:25.639Z,6.52
2023-02-26T07:25:00.299Z,6.52
2023-02-26T07:27:34.612Z,6.52
2023-02-26T07:30:09.749Z,6.51
2023-02-26T07:32:42.746Z,6.53
2023-02-26T07:35:15.913Z,6.54
2023-02-26T07:37:52.461Z,6.51
2023-02-26T07:40:27.885Z,6.50
2023-02-26T07:43:01.313Z,6.50
2023-02-26T07:45:34.501Z,6.49
2023-02-26T07:48:07.901Z,6.48
2023-02-26T07:50:43.858Z,6.47
2023-02-26T07:53:17.242Z,6.49
2023-02-26T07:55:50.589Z,6.50
2023-02-26T07:58:23.929Z,6.52
2023-02-26T08:00:57.306Z,6.53
2023-02-26T08:03:32.456Z,6.54
2023-02-26T08:06:07.617Z,6.55
2023-02-26T08:08:40.951Z,6.55
2023-02-26T08:11:13.793Z,6.55
2023-02-26T08:13:46.984Z,6.55
2023-02-26T08:16:20.480Z,6.55
2023-02-26T08:18:53.620Z,6.54
2023-02-26T08:21:27.847Z,6.53
2023-02-26T08:24:00.648Z,6.53
2023-02-26T08:26:35.935Z,6.54
2023-02-26T08:29:09.321Z,6.55
2023-02-26T08:31:43.189Z,6.55
2023-02-26T08:34:16.891Z,6.57
2023-02-26T08:36:50.670Z,6.58
2023-02-26T08:39:24.046Z,6.63
2023-02-26T08:41:56.904Z,6.65
2023-02-26T08:44:30.399Z,6.67
2023-02-26T08:47:04.097Z,6.69
2023-02-26T08:49:37.932Z,6.71
2023-02-26T08:52:11.027Z,6.74
2023-02-26T08:54:44.365Z,6.74
2023-02-26T08:57:17.429Z,6.73
2023-02-26T08:59:51.440Z,6.72
2023-02-26T09:02:24.412Z,6.73
2023-02-26T09:04:57.225Z,6.71
2023-02-26T09:07:30.265Z,6.70
2023-02-26T09:10:03.680Z,6.68
2023-02-26T09:12:37.230Z,6.68
2023-02-26T09:15:12.496Z,6.68
2023-02-26T09:17:45.976Z,6.69
2023-02-26T09:20:19.498Z,6.70
2023-02-26T09:22:53.060Z,6.73
2023-02-26T09:25:26.058Z,6.75
2023-02-26T09:27:59.184Z,6.76
2023-02-26T09:30:32.765Z,6.77
2023-02-26T09:33:06.359Z,6.78
2023-02-26T09:35:39.093Z,6.79
2023-02-26T09:38:12.207Z,6.82
2023-02-26T09:40:55.191Z,6.83
2023-02-26T09:44:13.029Z,6.85
2023-02-26T09:47:18.439Z,6.87
2023-02-26T09:50:14.230Z,6.88
2023-02-26T09:53:12.628Z,6.88
2023-02-26T09:55:50.511Z,6.91
2023-02-26T09:58:40.564Z,6.95
2023-02-26T10:01:36.382Z,6.98
2023-02-26T10:04:34.407Z,7.01
2023-02-26T10:07:47.948Z,7.04
2023-02-26T10:10:33.279Z,7.10
2023-02-26T10:13:06.601Z,7.13
2023-02-26T10:15:43.764Z,7.16
2023-02-26T10:18:21.915Z,7.19
2023-02-26T10:21:17.237Z,7.18
2023-02-26T10:24:01.910Z,7.18
2023-02-26T10:26:40.382Z,7.20
2023-02-26T10:29:53.204Z,7.20
2023-02-26T10:32:42.438Z,7.21
2023-02-26T10:35:18.442Z,7.20
2023-02-26T10:38:00.581Z,7.20
2023-02-26T10:40:56.532Z,7.20
2023-02-26T10:43:36.926Z,7.20
2023-02-26T10:46:45.877Z,7.20
2023-02-26T10:49:42.708Z,7.20
2023-02-26T10:52:26.088Z,7.20
2023-02-26T10:55:39.162Z,7.20
2023-02-26T10:58:19.488Z,7.22
2023-02-26T11:00:56.232Z,7.25
2023-02-26T11:03:39.346Z,7.29
2023-02-26T11:06:16.360Z,7.32
2023-02-26T11:08:56.192Z,7.34
2023-02-26T11:11:54.577Z,7.37
2023-02-26T11:14:30.823Z,7.40
2023-02-26T11:17:22.380Z,7.44
2023-02-26T11:20:07.870Z,7.47
2023-02-26T11:22:41.348Z,7.50
2023-02-26T11:25:21.365Z,7.56
2023-02-26T11:27:58.962Z,7.60
2023-02-26T11:30:36.634Z,7.64
2023-02-26T11:33:19.713Z,7.68
2023-02-26T11:35:53.430Z,7.73
2023-02-26T11:38:28.615Z,7.75
2023-02-26T11:41:03.481Z,7.77
2023-02-26T11:43:46.472Z,7.81
2023-02-26T11:46:20.129Z,7.82
2023-02-26T11:48:54.012Z,7.83
2023-02-26T11:51:31.592Z,7.84
2023-02-26T11:54:04.936Z,7.86
2023-02-26T11:56:46.700Z,7.88
2023-02-26T11:59:25.190Z,7.90
2023-02-26T12:02:03.727Z,7.91
2023-02-26T12:04:36.646Z,7.91
2023-02-26T12:07:13.950Z,7.95
2023-02-26T12:09:48.415Z,7.96
2023-02-26T12:12:29.458Z,7.96
2023-02-26T12:15:46.082Z,7.96
2023-02-26T12:18:39.318Z,7.96
2023-02-26T12:21:19.590Z,7.95
2023-02-26T12:24:13.863Z,7.92
2023-02-26T12:27:01.276Z,7.91
2023-02-26T12:30:06.456Z,7.90
2023-02-26T12:32:53.518Z,7.91
2023-02-26T12:35:48.294Z,7.90
2023-02-26T12:38:34.582Z,7.89
2023-02-26T12:41:40.909Z,7.90
2023-02-26T12:44:23.896Z,7.89
2023-02-26T12:47:36.715Z,7.91
2023-02-26T12:50:20.205Z,7.90
2023-02-26T12:53:00.531Z,7.92
2023-02-26T12:55:59.803Z,7.92
2023-02-26T12:59:12.037Z,7.95
2023-02-26T13:02:03.980Z,7.96
2023-02-26T13:04:53.305Z,7.95
2023-02-26T13:07:55.503Z,7.97
2023-02-26T13:10:44.641Z,7.97
2023-02-26T13:13:40.972Z,7.99
2023-02-26T13:16:33.609Z,7.99
2023-02-26T13:19:38.050Z,8.00
2023-02-26T13:22:36.712Z,8.01
2023-02-26T13:25:28.885Z,8.00
2023-02-26T13:28:08.015Z,8.03
2023-02-26T13:30:46.641Z,8.04
2023-02-26T13:33:24.229Z,8.06
2023-02-26T13:35:58.249Z,8.08
2023-02-26T13:39:03.285Z,8.11
2023-02-26T13:41:48.028Z,8.11
2023-02-26T13:44:50.579Z,8.11
2023-02-26T13:47:58.533Z,8.11
2023-02-26T13:50:47.832Z,8.10
2023-02-26T13:53:45.666Z,8.09
2023-02-26T13:56:39.422Z,8.09
2023-02-26T13:59:38.482Z,8.14
2023-02-26T14:02:34.054Z,8.16
2023-02-26T14:05:28.176Z,8.17
2023-02-26T14:08:24.417Z,8.14
2023-02-26T14:11:21.245Z,8.14
2023-02-26T14:14:32.896Z,8.14
2023-02-26T14:17:14.019Z,8.13
2023-02-26T14:19:59.021Z,8.12
2023-02-26T14:22:43.430Z,8.11
2023-02-26T14:25:50.073Z,8.10
2023-02-26T14:28:33.424Z,8.09
2023-02-26T14:31:14.164Z,8.06
2023-02-26T14:34:18.434Z,8.05
2023-02-26T14:37:00.806Z,8.06
2023-02-26T14:39:44.998Z,8.06
2023-02-26T14:42:31.697Z,8.06
2023-02-26T14:45:11.387Z,8.07
2023-02-26T14:47:45.905Z,8.05
2023-02-26T14:50:21.555Z,8.05
2023-02-26T14:53:30.898Z,8.04
2023-02-26T14:56:55.813Z,8.03
2023-02-26T14:59:57.466Z,8.00
2023-02-26T15:03:00.709Z,7.96
2023-02-26T15:05:47.746Z,7.92
2023-02-26T15:08:28.142Z,7.88
2023-02-26T15:11:46.435Z,7.85
2023-02-26T15:14:48.413Z,7.81
2023-02-26T15:17:31.897Z,7.80
2023-02-26T15:20:24.728Z,7.83
2023-02-26T15:23:14.790Z,7.86
2023-02-26T15:25:50.495Z,7.87
2023-02-26T15:28:39.458Z,7.86
2023-02-26T15:31:14.385Z,7.86
2023-02-26T15:33:51.233Z,7.84
2023-02-26T15:36:24.907Z,7.81
2023-02-26T15:39:02.000Z,7.79
2023-02-26T15:41:35.384Z,7.79
2023-02-26T15:44:13.567Z,7.77
2023-02-26T15:46:50.152Z,7.75
2023-02-26T15:49:30.587Z,7.74
2023-02-26T15:52:05.924Z,7.73
2023-02-26T15:54:49.431Z,7.71
2023-02-26T15:57:24.538Z,7.69
2023-02-26T16:00:17.742Z,7.68
2023-02-26T16:02:53.686Z,7.69
2023-02-26T16:05:28.838Z,7.70
2023-02-26T16:08:01.679Z,7.69
2023-02-26T16:10:38.554Z,7.69
2023-02-26T16:13:18.654Z,7.66
2023-02-26T16:15:51.960Z,7.66
2023-02-26T16:18:26.978Z,7.66
2023-02-26T16:21:02.166Z,7.65
2023-02-26T16:23:47.991Z,7.63
2023-02-26T16:26:37.087Z,7.61
2023-02-26T16:29:14.764Z,7.61
2023-02-26T16:31:52.240Z,7.61
2023-02-26T16:34:44.884Z,7.61
2023-02-26T16:37:34.013Z,7.61
2023-02-26T16:40:24.600Z,7.61
2023-02-26T16:43:10.175Z,7.61
2023-02-26T16:45:51.007Z,7.60
2023-02-26T16:48:30.008Z,7.59
2023-02-26T16:51:14.868Z,7.58
2023-02-26T16:53:52.345Z,7.56
2023-02-26T16:56:29.880Z,7.55
2023-02-26T16:59:21.673Z,7.54
2023-02-26T17:02:08.823Z,7.53
2023-02-26T17:04:42.145Z,7.51
2023-02-26T17:07:28.745Z,7.48
2023-02-26T17:10:21.015Z,7.46
2023-02-26T17:12:59.725Z,7.43
2023-02-26T17:15:38.966Z,7.42
2023-02-26T17:18:13.328Z,7.40
2023-02-26T17:20:47.442Z,7.38
2023-02-26T17:23:24.580Z,7.37
2023-02-26T17:25:59.492Z,7.38
2023-02-26T17:28:42.824Z,7.39
2023-02-26T17:31:16.267Z,7.40
2023-02-26T17:33:50.530Z,7.38
2023-02-26T17:36:22.685Z,7.38
2023-02-26T17:38:55.103Z,7.38
2023-02-26T17:41:30.758Z,7.37
2023-02-26T17:44:02.760Z,7.38
2023-02-26T17:46:35.612Z,7.37
2023-02-26T17:49:09.105Z,7.34
2023-02-26T17:51:41.966Z,7.30
2023-02-26T17:54:14.761Z,7.28
2023-02-26T17:56:47.545Z,7.27
2023-02-26T17:59:20.981Z,7.28
2023-02-26T18:01:53.725Z,7.25
2023-02-26T18:04:27.308Z,7.23
2023-02-26T18:07:00.331Z,7.21
2023-02-26T18:09:33.548Z,7.19
2023-02-26T18:12:07.514Z,7.17
2023-02-26T18:14:40.679Z,7.18
2023-02-26T18:17:22.133Z,7.18
2023-02-26T18:19:55.402Z,7.15
2023-02-26T18:22:28.269Z,7.12
2023-02-26T18:25:01.914Z,7.08
2023-02-26T18:27:35.797Z,7.03
2023-02-26T18:30:24.902Z,7.02
2023-02-26T18:32:58.021Z,6.99
2023-02-26T18:35:32.778Z,7.00
2023-02-26T18:38:05.744Z,6.99
2023-02-26T18:40:38.826Z,7.01
2023-02-26T18:43:12.917Z,7.03
2023-02-26T18:45:49.344Z,7.06
2023-02-26T18:48:22.978Z,7.08
2023-02-26T18:50:59.734Z,7.07
2023-02-26T18:53:34.281Z,7.07
2023-02-26T18:56:08.174Z,7.04
2023-02-26T18:58:41.807Z,7.02
2023-02-26T19:01:15.323Z,7.00
2023-02-26T19:03:48.261Z,6.98
2023-02-26T19:06:21.371Z,6.97
2023-02-26T19:08:54.780Z,6.98
2023-02-26T19:11:27.729Z,6.98
2023-02-26T19:14:01.635Z,6.97
2023-02-26T19:16:37.126Z,6.98
2023-02-26T19:19:12.813Z,6.97
2023-02-26T19:21:46.119Z,6.95
2023-02-26T19:24:19.326Z,6.95
2023-02-26T19:26:52.284Z,6.95
2023-02-26T19:29:25.125Z,6.94
2023-02-26T19:31:58.413Z,6.93
2023-02-26T19:34:32.406Z,6.92
2023-02-26T19:37:05.239Z,6.91
2023-02-26T19:39:38.497Z,6.88
2023-02-26T19:42:12.230Z,6.85
2023-02-26T19:44:45.267Z,6.85
2023-02-26T19:47:18.471Z,6.87
2023-02-26T19:49:51.364Z,6.86
2023-02-26T19:52:24.180Z,6.87
2023-02-26T19:54:56.920Z,6.88
2023-02-26T19:57:30.298Z,6.87
2023-02-26T20:00:03.595Z,6.87
2023-02-26T20:02:38.062Z,6.88
2023-02-26T20:05:13.305Z,6.87
2023-02-26T20:07:48.386Z,6.85
2023-02-26T20:10:23.486Z,6.81
2023-02-26T20:12:58.676Z,6.80
2023-02-26T20:15:31.752Z,6.81
2023-02-26T20:18:04.682Z,6.82
2023-02-26T20:20:37.651Z,6.83
2023-02-26T20:23:10.566Z,6.83
2023-02-26T20:25:45.524Z,6.84
2023-02-26T20:28:20.881Z,6.85
2023-02-26T20:30:52.847Z,6.86
2023-02-26T20:33:26.374Z,6.86
2023-02-26T20:35:59.090Z,6.86
2023-02-26T20:38:31.898Z,6.86
2023-02-26T20:41:05.938Z,6.87
2023-02-26T20:43:38.990Z,6.88
2023-02-26T20:46:13.338Z,6.91
2023-02-26T20:48:46.335Z,6.94
2023-02-26T20:51:19.239Z,6.98
2023-02-26T20:53:52.255Z,7.01
2023-02-26T20:56:25.745Z,7.06
2023-02-26T20:58:58.516Z,7.10
2023-02-26T21:01:32.922Z,7.14
2023-02-26T21:04:09.576Z,7.19
2023-02-26T21:06:42.584Z,7.22
2023-02-26T21:09:17.206Z,7.29
2023-02-26T21:11:51.681Z,7.31
2023-02-26T21:14:26.696Z,7.33
2023-02-26T21:16:59.782Z,7.35
2023-02-26T21:19:33.721Z,7.37
2023-02-26T21:22:07.549Z,7.37
2023-02-26T21:24:40.269Z,7.37
2023-02-26T21:27:13.228Z,7.35
2023-02-26T21:29:46.541Z,7.33
2023-02-26T21:32:19.611Z,7.32
2023-02-26T21:34:52.624Z,7.32
2023-02-26T21:37:26.331Z,7.31
2023-02-26T21:39:59.578Z,7.30
2023-02-26T21:42:32.288Z,7.29
2023-02-26T21:45:05.600Z,7.28
2023-02-26T21:47:39.040Z,7.25
2023-02-26T21:50:13.097Z,7.25
2023-02-26T21:52:46.283Z,7.22
2023-02-26T21:55:19.285Z,7.21
2023-02-26T21:57:52.099Z,7.18
2023-02-26T22:00:25.180Z,7.16
2023-02-26T22:02:58.123Z,7.13
2023-02-26T22:05:30.808Z,7.10
2023-02-26T22:08:03.577Z,7.06
2023-02-26T22:10:36.595Z,7.03
2023-02-26T22:13:09.445Z,7.01
2023-02-26T22:15:43.516Z,6.98
2023-02-26T22:18:18.319Z,6.96
2023-02-26T22:20:51.211Z,6.94
2023-02-26T22:23:24.649Z,6.92
2023-02-26T22:25:57.526Z,6.89
2023-02-26T22:28:30.694Z,6.86
2023-02-26T22:31:03.723Z,6.85
2023-02-26T22:33:36.971Z,6.83
2023-02-26T22:36:10.897Z,6.82
2023-02-26T22:38:43.785Z,6.80
2023-02-26T22:41:18.128Z,6.80
2023-02-26T22:43:53.883Z,6.78
2023-02-26T22:46:28.731Z,6.77
2023-02-26T22:49:01.832Z,6.77
2023-02-26T22:51:35.207Z,6.77
2023-02-26T22:54:08.480Z,6.75
2023-02-26T22:56:41.134Z,6.76
2023-02-26T22:59:14.381Z,6.77
2023-02-26T23:01:47.294Z,6.74
2023-02-26T23:04:20.506Z,6.75
2023-02-26T23:06:53.408Z,6.74
2023-02-26T23:09:28.034Z,6.75
2023-02-26T23:12:00.927Z,6.76
2023-02-26T23:14:34.449Z,6.74
2023-02-26T23:17:09.241Z,6.72
2023-02-26T23:19:42.064Z,6.70
2023-02-26T23:22:15.441Z,6.70
2023-02-26T23:24:49.076Z,6.72
2023-02-26T23:27:22.652Z,6.70
2023-02-26T23:29:56.124Z,6.70
2023-02-26T23:32:29.679Z,6.69
2023-02-26T23:35:03.318Z,6.69
2023-02-26T23:37:36.461Z,6.66
2023-02-26T23:40:11.755Z,6.66
2023-02-26T23:42:45.355Z,6.64
2023-02-26T23:45:18.188Z,6.62
2023-02-26T23:47:52.898Z,6.59
2023-02-26T23:50:26.136Z,6.56
2023-02-26T23:52:58.932Z,6.50
2023-02-26T23:55:31.804Z,6.46
2023-02-26T23:58:04.533Z,6.42
